Time;durP1;ratioP1;P1;durP2;ratioP2;P2;SDS_P1;SDS_P2;PMS_P1;PMS_P2;Temp;Humidity;BMP_temperature;BMP_pressure;BME280_temperature;BME280_humidity;BME280_pressure;Samples;Min_cycle;Max_cycle;Signal;HPM_P1;HPM_P2
2021/01/20 00:00:15;;;;;;;32.72;18.75;;;;;;;1.74;100.00;101806.47;5115698;28;20515;-73
2021/01/20 00:03:00;;;;;;;29.52;18.08;;;;;;;1.89;100.00;101797.53;5116047;28;20114;-73
2021/01/20 00:05:46;;;;;;;29.65;17.38;;;;;;;1.77;100.00;101797.13;5115368;28;20037;-73
2021/01/20 00:08:32;;;;;;;31.17;17.50;;;;;;;2.00;100.00;101800.50;5115255;28;20077;-73
2021/01/20 00:11:18;;;;;;;28.67;16.90;;;;;;;1.66;100.00;101803.63;5115654;28;20511;-73
2021/01/20 00:14:04;;;;;;;29.20;15.80;;;;;;;1.27;100.00;101796.13;5114341;28;20457;-73
2021/01/20 00:16:50;;;;;;;29.25;16.83;;;;;;;1.67;100.00;101802.81;5114726;28;20102;-73
2021/01/20 00:19:35;;;;;;;28.30;17.23;;;;;;;1.54;100.00;101804.88;5115209;28;20452;-73
2021/01/20 00:22:21;;;;;;;29.20;17.23;;;;;;;1.46;100.00;101798.56;5115368;28;20473;-73
2021/01/20 00:25:08;;;;;;;29.88;16.80;;;;;;;1.75;100.00;101792.72;5115138;28;20066;-73
2021/01/20 00:27:54;;;;;;;29.90;17.45;;;;;;;1.61;100.00;101792.25;5115673;28;20023;-73
2021/01/20 00:30:39;;;;;;;30.75;17.60;;;;;;;1.54;100.00;101790.28;5114836;28;20039;-74
2021/01/20 00:33:25;;;;;;;27.77;16.77;;;;;;;1.58;100.00;101788.69;5115138;28;20039;-73
2021/01/20 00:36:11;;;;;;;28.55;16.35;;;;;;;1.30;100.00;101792.00;5115548;28;20447;-74
2021/01/20 00:38:57;;;;;;;30.15;17.25;;;;;;;1.35;100.00;101798.19;5116050;28;20049;-73
2021/01/20 00:41:44;;;;;;;28.63;17.27;;;;;;;1.47;100.00;101790.88;5115120;28;20034;-73
2021/01/20 00:44:30;;;;;;;29.58;16.90;;;;;;;1.53;100.00;101800.56;5115124;28;20024;-73
2021/01/20 00:47:16;;;;;;;29.60;17.35;;;;;;;1.60;100.00;101792.22;5113741;28;20047;-75
2021/01/20 00:50:03;;;;;;;28.38;16.58;;;;;;;1.57;100.00;101797.25;5113509;28;20028;-73
2021/01/20 00:52:49;;;;;;;30.20;17.23;;;;;;;1.92;100.00;101789.91;5113740;28;20032;-74
2021/01/20 00:55:35;;;;;;;33.03;17.88;;;;;;;1.65;100.00;101788.09;5115279;28;20120;-72
2021/01/20 00:58:21;;;;;;;29.50;16.65;;;;;;;1.74;100.00;101781.53;5114774;28;20023;-72
2021/01/20 01:01:06;;;;;;;26.55;15.90;;;;;;;1.60;100.00;101787.06;5113798;28;20019;-73
2021/01/20 01:03:52;;;;;;;27.13;15.55;;;;;;;1.64;100.00;101784.59;5114675;28;20030;-73
2021/01/20 01:06:38;;;;;;;29.92;15.48;;;;;;;1.57;100.00;101792.97;5114487;28;20027;-73
2021/01/20 01:09:24;;;;;;;23.67;14.50;;;;;;;1.68;100.00;101778.72;5100091;28;20057;-74
2021/01/20 01:12:10;;;;;;;28.65;15.68;;;;;;;1.27;100.00;101775.50;5099439;28;20020;-73
2021/01/20 01:14:56;;;;;;;25.17;14.80;;;;;;;1.44;100.00;101772.69;5115440;28;20041;-72
2021/01/20 01:17:42;;;;;;;30.27;15.27;;;;;;;1.67;100.00;101773.50;5098090;28;20038;-72
2021/01/20 01:20:27;;;;;;;28.23;15.38;;;;;;;1.69;100.00;101770.16;5114613;28;20069;-73
2021/01/20 01:23:13;;;;;;;29.23;16.48;;;;;;;1.88;100.00;101776.84;5114090;28;20115;-73
2021/01/20 01:25:59;;;;;;;26.65;15.50;;;;;;;1.66;100.00;101769.16;5099695;28;20023;-73
2021/01/20 01:28:45;;;;;;;28.15;15.32;;;;;;;1.89;100.00;101770.84;5099076;28;20027;-73
2021/01/20 01:31:31;;;;;;;29.73;17.02;;;;;;;1.63;100.00;101774.22;5112993;28;20069;-73
2021/01/20 01:34:16;;;;;;;27.23;16.05;;;;;;;1.59;100.00;101769.78;5113143;28;20028;-73
2021/01/20 01:37:02;;;;;;;25.63;15.43;;;;;;;1.57;100.00;101777.47;5113772;28;20027;-73
2021/01/20 01:39:48;;;;;;;28.45;15.95;;;;;;;1.60;100.00;101777.56;5114760;28;20100;-73
2021/01/20 01:42:34;;;;;;;24.88;15.68;;;;;;;1.85;100.00;101777.59;5114161;28;20042;-73
2021/01/20 01:45:20;;;;;;;28.83;16.02;;;;;;;1.17;100.00;101766.56;5113222;28;20075;-73
2021/01/20 01:48:06;;;;;;;25.42;15.52;;;;;;;1.77;100.00;101766.13;5112596;28;20087;-73
2021/01/20 01:50:52;;;;;;;27.65;15.57;;;;;;;1.67;100.00;101761.47;5115039;28;20032;-73
2021/01/20 01:53:38;;;;;;;26.13;15.27;;;;;;;1.60;100.00;101754.34;5113259;28;20499;-73
2021/01/20 01:56:24;;;;;;;24.13;14.90;;;;;;;1.59;100.00;101755.16;5114798;28;20135;-72
2021/01/20 01:59:12;;;;;;;22.95;14.48;;;;;;;1.73;100.00;101755.66;5116613;28;20106;-72
2021/01/20 02:01:58;;;;;;;23.08;13.25;;;;;;;1.64;100.00;101755.34;5117607;28;20176;-73
2021/01/20 02:04:44;;;;;;;22.92;13.80;;;;;;;2.00;100.00;101751.38;5117540;28;20039;-72
2021/01/20 02:07:30;;;;;;;22.08;13.35;;;;;;;1.87;100.00;101757.88;5116609;28;20454;-73
2021/01/20 02:10:16;;;;;;;22.42;13.77;;;;;;;1.94;100.00;101748.63;5117035;28;20337;-73
2021/01/20 02:13:26;;;;;;;21.63;12.98;;;;;;;1.92;100.00;101748.56;5118055;28;20023;-73
2021/01/20 02:16:35;;;;;;;24.17;14.07;;;;;;;1.93;100.00;101755.47;5102732;28;20092;-73
2021/01/20 02:19:37;;;;;;;24.52;14.25;;;;;;;1.83;100.00;101745.69;5116535;28;20019;-73
2021/01/20 02:22:28;;;;;;;24.70;13.80;;;;;;;2.19;100.00;101746.00;5116675;28;20363;-73
2021/01/20 02:25:17;;;;;;;26.65;14.50;;;;;;;1.96;100.00;101750.44;5117297;28;20460;-74
2021/01/20 02:28:10;;;;;;;21.70;13.00;;;;;;;1.73;100.00;101751.34;5102597;28;20031;-73
2021/01/20 02:30:56;;;;;;;22.75;13.68;;;;;;;1.93;100.00;101741.69;5102864;28;20035;-73
2021/01/20 02:33:46;;;;;;;23.00;13.90;;;;;;;2.08;100.00;101743.06;5117329;28;20136;-73
2021/01/20 02:36:32;;;;;;;23.70;13.73;;;;;;;1.82;100.00;101740.47;5116025;28;20028;-73
2021/01/20 02:39:19;;;;;;;22.85;13.90;;;;;;;2.20;100.00;101733.13;5103334;28;20023;-73
2021/01/20 02:42:06;;;;;;;26.45;14.90;;;;;;;1.91;100.00;101739.06;5100976;28;20498;-73
2021/01/20 02:44:51;;;;;;;20.67;12.80;;;;;;;2.20;100.00;101735.72;5117296;28;20023;-73
2021/01/20 02:47:38;;;;;;;22.95;13.32;;;;;;;2.29;100.00;101732.56;5115459;28;20044;-73
2021/01/20 02:50:24;;;;;;;23.80;13.35;;;;;;;2.09;100.00;101733.63;5116599;28;20039;-72
2021/01/20 02:53:14;;;;;;;22.65;13.65;;;;;;;2.05;100.00;101734.34;5116870;28;20020;-73
2021/01/20 02:56:03;;;;;;;22.33;13.18;;;;;;;2.03;100.00;101730.81;5102120;28;20019;-73
2021/01/20 02:58:51;;;;;;;20.42;12.43;;;;;;;1.89;100.00;101737.25;5115847;28;20044;-73
2021/01/20 03:01:42;;;;;;;20.98;12.07;;;;;;;2.10;100.00;101733.69;5100779;28;20128;-73
2021/01/20 03:04:30;;;;;;;22.38;12.95;;;;;;;1.58;100.00;101737.03;5115772;28;20069;-72
2021/01/20 03:07:19;;;;;;;23.15;13.38;;;;;;;1.75;100.00;101726.47;5115502;28;20127;-73
2021/01/20 03:10:08;;;;;;;21.88;13.23;;;;;;;1.61;100.00;101732.84;5114705;28;20024;-73
2021/01/20 03:12:55;;;;;;;21.65;13.25;;;;;;;2.03;100.00;101728.25;5115252;28;20027;-73
2021/01/20 03:15:42;;;;;;;21.20;12.80;;;;;;;1.79;100.00;101732.59;5102674;28;20028;-73
2021/01/20 03:18:28;;;;;;;23.23;13.82;;;;;;;1.83;100.00;101721.53;5101149;28;20019;-72
2021/01/20 03:21:14;;;;;;;22.45;13.90;;;;;;;1.99;100.00;101722.09;5116987;28;20107;-72
2021/01/20 03:23:59;;;;;;;23.23;13.95;;;;;;;1.76;100.00;101728.22;5116217;28;20038;-72
2021/01/20 03:26:45;;;;;;;25.33;14.98;;;;;;;1.82;100.00;101736.19;5116518;28;20512;-72
2021/01/20 03:29:31;;;;;;;23.77;14.10;;;;;;;1.83;100.00;101737.94;5116644;28;20035;-73
2021/01/20 03:32:16;;;;;;;22.60;13.85;;;;;;;1.84;100.00;101734.50;5116659;28;20023;-73
2021/01/20 03:35:03;;;;;;;21.70;14.00;;;;;;;1.89;100.00;101751.03;5116761;28;20113;-73
2021/01/20 03:37:49;;;;;;;23.60;13.98;;;;;;;1.45;100.00;101745.19;5114765;28;20340;-73
2021/01/20 03:40:36;;;;;;;22.98;14.18;;;;;;;1.31;100.00;101743.81;5100823;28;20068;-73
2021/01/20 03:43:21;;;;;;;23.65;13.18;;;;;;;1.65;100.00;101750.19;5114877;28;20055;-73
2021/01/20 03:46:07;;;;;;;21.77;12.60;;;;;;;1.69;100.00;101746.91;5099937;28;20053;-73
2021/01/20 03:48:53;;;;;;;24.42;13.60;;;;;;;2.09;100.00;101741.38;5099531;28;20031;-73
2021/01/20 03:51:39;;;;;;;21.58;12.95;;;;;;;1.75;100.00;101747.13;5115636;28;20048;-73
2021/01/20 03:54:24;;;;;;;20.95;12.68;;;;;;;1.50;100.00;101752.28;5100293;28;20050;-74
2021/01/20 03:57:10;;;;;;;18.77;12.23;;;;;;;1.61;100.00;101757.81;5100769;28;20019;-73
2021/01/20 03:59:56;;;;;;;22.00;12.57;;;;;;;1.79;100.00;101756.75;5114181;28;20084;-73
2021/01/20 04:02:41;;;;;;;19.40;12.38;;;;;;;1.97;100.00;101754.75;5100545;28;20016;-73
2021/01/20 04:05:27;;;;;;;21.27;12.20;;;;;;;2.17;100.00;101753.72;5115439;28;20367;-74
2021/01/20 04:08:13;;;;;;;21.60;12.55;;;;;;;2.05;100.00;101750.72;5100662;28;20038;-73
2021/01/20 04:10:59;;;;;;;20.55;12.88;;;;;;;2.11;100.00;101742.28;5115631;28;20028;-73
2021/01/20 04:13:45;;;;;;;21.63;12.82;;;;;;;1.74;100.00;101750.53;5100038;28;20016;-73
2021/01/20 04:16:31;;;;;;;22.83;13.23;;;;;;;2.10;100.00;101751.78;5114474;28;20344;-73
2021/01/20 04:19:17;;;;;;;20.65;12.93;;;;;;;1.88;100.00;101746.69;5115720;28;20063;-73
2021/01/20 04:22:03;;;;;;;22.70;13.27;;;;;;;2.07;100.00;101750.78;5115144;28;20027;-72
2021/01/20 04:24:48;;;;;;;21.63;13.57;;;;;;;2.00;100.00;101752.28;5114966;28;20031;-73
2021/01/20 04:27:34;;;;;;;25.00;14.43;;;;;;;2.31;100.00;101748.97;5115418;28;20031;-73
2021/01/20 04:30:20;;;;;;;26.90;15.27;;;;;;;1.72;100.00;101752.19;5100017;28;20037;-73
2021/01/20 04:33:06;;;;;;;25.55;14.45;;;;;;;1.46;100.00;101757.25;5100614;28;20028;-73
2021/01/20 04:35:52;;;;;;;24.80;14.52;;;;;;;1.63;100.00;101751.88;5099661;28;20033;-72
2021/01/20 04:38:38;;;;;;;24.35;14.35;;;;;;;2.19;100.00;101752.06;5099374;28;20027;-74
2021/01/20 04:41:24;;;;;;;27.17;14.30;;;;;;;2.34;100.00;101746.50;5113962;28;20024;-73
2021/01/20 04:44:10;;;;;;;26.67;15.10;;;;;;;2.14;100.00;101748.47;5114227;28;20038;-73
2021/01/20 04:46:56;;;;;;;26.08;14.90;;;;;;;2.30;100.00;101744.66;5114598;28;20052;-72
2021/01/20 04:49:45;;;;;;;25.67;14.82;;;;;;;1.70;100.00;101756.44;5113458;28;20118;-72
2021/01/20 04:52:32;;;;;;;25.35;15.30;;;;;;;1.99;100.00;101758.28;5098722;28;20081;-72
2021/01/20 04:55:18;;;;;;;24.30;14.48;;;;;;;1.95;100.00;101753.84;5114449;28;20051;-73
2021/01/20 04:58:04;;;;;;;23.25;13.95;;;;;;;1.98;100.00;101755.66;5115040;28;20043;-74
2021/01/20 05:00:51;;;;;;;25.17;14.10;;;;;;;1.81;100.00;101765.41;5113382;28;20446;-72
2021/01/20 05:03:41;;;;;;;21.55;13.35;;;;;;;1.75;100.00;101765.22;5113636;28;20037;-73
2021/01/20 05:06:28;;;;;;;23.23;13.93;;;;;;;2.09;100.00;101774.97;5099578;28;20064;-73
2021/01/20 05:09:14;;;;;;;24.52;14.73;;;;;;;2.32;100.00;101768.84;5113969;28;20060;-73
2021/01/20 05:12:00;;;;;;;24.90;14.02;;;;;;;2.05;100.00;101766.22;5112796;28;20031;-73
2021/01/20 05:14:46;;;;;;;23.77;13.90;;;;;;;2.15;100.00;101770.88;5114519;28;20110;-73
2021/01/20 05:17:36;;;;;;;22.33;13.90;;;;;;;2.26;100.00;101763.47;5112909;28;20378;-73
2021/01/20 05:20:36;;;;;;;21.95;13.18;;;;;;;2.53;100.00;101757.47;5113589;28;20023;-72
2021/01/20 05:23:26;;;;;;;24.33;13.70;;;;;;;2.03;100.00;101761.84;5098136;28;20064;-73
2021/01/20 05:26:12;;;;;;;25.42;13.80;;;;;;;2.17;100.00;101776.97;5099502;28;20417;-72
2021/01/20 05:28:57;;;;;;;27.63;14.98;;;;;;;2.52;100.00;101771.22;5114924;28;20107;-73
2021/01/20 05:31:44;;;;;;;25.92;14.57;;;;;;;2.23;100.00;101777.19;5114513;28;20023;-72
2021/01/20 05:34:32;;;;;;;32.55;16.98;;;;;;;2.21;100.00;101770.22;5118725;28;20027;-73
2021/01/20 05:37:18;;;;;;;29.65;16.38;;;;;;;2.27;100.00;101783.31;5117071;28;20031;-73
2021/01/20 05:40:09;;;;;;;30.02;16.63;;;;;;;2.21;100.00;101786.59;5103253;28;20031;-72
2021/01/20 05:42:55;;;;;;;31.40;18.38;;;;;;;2.16;100.00;101780.41;5118391;28;20115;-72
2021/01/20 05:45:45;;;;;;;34.55;18.45;;;;;;;2.65;100.00;101778.53;5103127;28;20474;-73
2021/01/20 05:48:30;;;;;;;34.63;18.85;;;;;;;2.59;100.00;101778.38;5103860;28;20349;-73
2021/01/20 05:51:17;;;;;;;37.15;20.15;;;;;;;2.68;100.00;101783.81;5104910;28;20039;-72
2021/01/20 05:54:03;;;;;;;36.60;20.55;;;;;;;3.00;100.00;101779.59;5101685;28;20034;-73
2021/01/20 05:56:49;;;;;;;39.20;20.15;;;;;;;2.97;100.00;101771.78;5117850;28;20024;-73
2021/01/20 05:59:35;;;;;;;36.35;19.98;;;;;;;3.03;100.00;101770.25;5118205;28;20019;-73
2021/01/20 06:02:21;;;;;;;38.47;21.60;;;;;;;2.74;100.00;101772.78;5117943;28;20122;-74
2021/01/20 06:05:11;;;;;;;40.28;21.95;;;;;;;3.12;100.00;101770.50;5102041;28;20019;-74
2021/01/20 06:07:57;;;;;;;36.75;21.42;;;;;;;3.12;100.00;101775.69;5116515;28;20024;-74
2021/01/20 06:10:43;;;;;;;39.78;22.77;;;;;;;2.96;100.00;101780.34;5102563;28;20024;-73
2021/01/20 06:13:29;;;;;;;42.50;23.98;;;;;;;3.16;100.00;101776.63;5116392;28;20028;-73
2021/01/20 06:16:22;;;;;;;45.65;25.02;;;;;;;3.13;100.00;101779.16;5118262;28;20081;-74
2021/01/20 06:19:10;;;;;;;50.80;27.70;;;;;;;3.26;100.00;101764.00;5116443;28;20024;-74
2021/01/20 06:21:59;;;;;;;56.15;29.83;;;;;;;2.65;100.00;101770.78;5117354;28;20110;-74
2021/01/20 06:24:50;;;;;;;53.40;27.88;;;;;;;3.18;100.00;101772.41;5103133;28;20038;-73
2021/01/20 06:27:45;;;;;;;47.08;27.10;;;;;;;2.84;100.00;101778.28;5102958;28;20023;-74
2021/01/20 06:30:43;;;;;;;43.15;24.80;;;;;;;3.03;100.00;101792.66;5116061;28;20032;-73
2021/01/20 06:33:29;;;;;;;44.55;24.38;;;;;;;3.12;100.00;101798.09;5103151;28;20356;-73
2021/01/20 06:36:31;;;;;;;47.20;26.02;;;;;;;2.80;100.00;101798.81;5115813;28;20165;-74
2021/01/20 06:39:26;;;;;;;52.35;28.90;;;;;;;2.92;100.00;101800.09;5116303;28;20061;-74
2021/01/20 06:42:31;;;;;;;53.83;30.65;;;;;;;2.99;100.00;101799.47;5115545;28;20053;-73
2021/01/20 06:45:22;;;;;;;57.33;30.75;;;;;;;3.59;100.00;101796.03;5115259;28;20031;-74
2021/01/20 06:48:08;;;;;;;60.70;31.67;;;;;;;3.34;100.00;101791.00;5117255;28;20062;-75
2021/01/20 06:51:12;;;;;;;59.80;31.95;;;;;;;3.52;100.00;101795.81;5102091;28;20051;-73
2021/01/20 06:54:12;;;;;;;54.38;30.85;;;;;;;3.70;100.00;101793.75;5102461;28;20405;-74
2021/01/20 06:56:58;;;;;;;59.72;32.85;;;;;;;3.91;100.00;101782.22;5116632;28;20478;-73
2021/01/20 06:59:44;;;;;;;49.30;29.08;;;;;;;3.98;100.00;101786.72;5116679;28;20386;-73
2021/01/20 07:02:29;;;;;;;50.15;28.10;;;;;;;3.96;100.00;101791.00;5116437;28;20038;-73
2021/01/20 07:05:30;;;;;;;43.08;25.48;;;;;;;4.09;100.00;101800.84;5117916;28;20065;-74
2021/01/20 07:08:16;;;;;;;47.58;27.48;;;;;;;3.82;100.00;101802.72;5115952;28;20114;-74
2021/01/20 07:11:03;;;;;;;56.33;31.25;;;;;;;4.31;100.00;101807.47;5116387;28;20035;-74
2021/01/20 07:13:49;;;;;;;66.80;35.33;;;;;;;4.31;100.00;101812.66;5116066;28;20412;-75
2021/01/20 07:16:35;;;;;;;70.13;37.75;;;;;;;4.40;100.00;101813.75;5100376;28;20103;-74
2021/01/20 07:19:22;;;;;;;74.72;40.25;;;;;;;4.59;100.00;101813.34;5115239;28;20012;-74
2021/01/20 07:22:08;;;;;;;72.25;39.42;;;;;;;4.03;100.00;101824.00;5115113;28;20096;-74
2021/01/20 07:24:55;;;;;;;70.72;37.58;;;;;;;4.45;100.00;101827.72;5100208;28;20023;-73
2021/01/20 07:27:49;;;;;;;73.90;39.22;;;;;;;4.30;100.00;101829.06;5114899;28;20418;-73
2021/01/20 07:30:35;;;;;;;73.45;38.80;;;;;;;4.08;100.00;101824.13;5116307;28;20104;-74
2021/01/20 07:33:22;;;;;;;70.38;37.95;;;;;;;4.89;100.00;101818.38;5116552;28;20027;-74
2021/01/20 07:36:09;;;;;;;82.82;43.88;;;;;;;5.02;100.00;101820.41;5114818;28;20023;-74
2021/01/20 07:38:55;;;;;;;82.80;42.70;;;;;;;4.96;100.00;101805.59;5115066;28;20041;-74
2021/01/20 07:41:41;;;;;;;77.43;38.65;;;;;;;5.23;100.00;101813.09;5115996;28;20046;-74
2021/01/20 07:44:28;;;;;;;68.60;36.00;;;;;;;4.89;100.00;101811.47;5115659;28;20039;-74
2021/01/20 07:47:13;;;;;;;63.40;34.85;;;;;;;5.17;100.00;101808.66;5114221;28;20152;-74
2021/01/20 07:49:59;;;;;;;66.82;34.67;;;;;;;5.20;100.00;101808.69;5100410;28;20016;-74
2021/01/20 07:52:45;;;;;;;69.82;35.33;;;;;;;5.18;100.00;101807.78;5115599;28;20032;-75
2021/01/20 07:55:31;;;;;;;61.80;31.75;;;;;;;4.70;100.00;101805.81;5114810;28;20485;-76
2021/01/20 07:58:24;;;;;;;58.45;30.73;;;;;;;5.47;100.00;101811.88;5115420;28;20114;-75
2021/01/20 08:01:10;;;;;;;56.05;30.23;;;;;;;5.18;100.00;101812.09;5100332;28;20027;-73
2021/01/20 08:03:58;;;;;;;50.25;26.58;;;;;;;4.56;100.00;101810.69;5115405;28;20106;-74
2021/01/20 08:06:43;;;;;;;49.97;26.42;;;;;;;5.32;100.00;101816.75;5101236;28;20038;-75
2021/01/20 08:09:40;;;;;;;44.53;24.98;;;;;;;5.83;100.00;101811.75;5115412;28;20033;-75
2021/01/20 08:12:29;;;;;;;44.47;23.15;;;;;;;5.59;100.00;101818.19;5114704;28;20023;-75
2021/01/20 08:15:15;;;;;;;38.38;21.08;;;;;;;5.76;100.00;101820.28;5115215;28;20031;-73
2021/01/20 08:18:01;;;;;;;36.88;21.20;;;;;;;6.12;100.00;101823.59;5114002;28;20070;-75
2021/01/20 08:20:47;;;;;;;31.40;20.10;;;;;;;6.32;99.77;101824.81;5116078;28;20019;-75
2021/01/20 08:23:33;;;;;;;34.22;16.67;;;;;;;6.35;100.00;101816.19;5099571;28;20023;-74
2021/01/20 08:26:26;;;;;;;33.00;15.88;;;;;;;5.78;99.37;101815.09;5115290;28;20066;-75
2021/01/20 08:29:12;;;;;;;27.42;15.13;;;;;;;5.73;100.00;101811.50;5098775;28;20040;-74
2021/01/20 08:32:24;;;;;;;26.05;14.77;;;;;;;6.73;98.62;101804.66;5114238;28;20035;-75
2021/01/20 08:35:11;;;;;;;37.65;17.63;;;;;;;7.09;96.64;101807.78;5114709;28;20114;-74
2021/01/20 08:37:57;;;;;;;30.98;15.38;;;;;;;6.84;95.52;101803.09;5115001;28;20030;-74
2021/01/20 08:40:42;;;;;;;22.65;13.38;;;;;;;6.31;98.45;101810.03;5113590;28;20454;-74
2021/01/20 08:43:28;;;;;;;25.45;14.55;;;;;;;6.40;97.99;101805.00;5114622;28;20031;-74
2021/01/20 08:46:22;;;;;;;29.40;15.80;;;;;;;6.56;95.63;101806.13;5114694;28;20051;-73
2021/01/20 08:49:07;;;;;;;28.60;15.38;;;;;;;6.46;96.72;101810.28;5099584;28;20045;-73
2021/01/20 08:51:57;;;;;;;29.05;16.90;;;;;;;6.41;98.28;101806.75;5113310;28;20028;-74
2021/01/20 08:54:51;;;;;;;34.55;20.00;;;;;;;5.88;100.00;101810.13;5114631;28;20027;-74
2021/01/20 08:57:36;;;;;;;40.30;21.35;;;;;;;6.93;96.62;101798.00;5114017;28;20363;-74
2021/01/20 09:00:39;;;;;;;33.05;19.60;;;;;;;7.06;95.13;101802.53;5114334;28;20051;-72
2021/01/20 09:03:26;;;;;;;32.00;18.08;;;;;;;7.43;93.08;101800.44;5113444;28;20110;-73
2021/01/20 09:06:16;;;;;;;37.50;19.80;;;;;;;7.15;94.59;101789.66;5114238;28;20106;-73
2021/01/20 09:09:02;;;;;;;40.63;19.60;;;;;;;7.09;91.08;101784.34;5115177;28;20113;-74
2021/01/20 09:11:48;;;;;;;27.20;14.88;;;;;;;6.84;92.41;101785.75;5113811;28;20027;-74
2021/01/20 09:14:38;;;;;;;31.13;17.20;;;;;;;7.12;93.34;101785.25;5114627;28;20084;-74
2021/01/20 09:17:24;;;;;;;36.33;17.52;;;;;;;6.84;93.00;101774.44;5113489;28;20058;-74
2021/01/20 09:20:10;;;;;;;28.73;15.32;;;;;;;7.53;90.59;101785.78;5115194;28;20015;-74
2021/01/20 09:22:56;;;;;;;22.88;13.38;;;;;;;8.12;87.52;101775.09;5113945;28;20019;-74
2021/01/20 09:25:42;;;;;;;15.82;9.05;;;;;;;7.23;88.61;101769.78;5114447;28;20106;-74
2021/01/20 09:28:28;;;;;;;14.93;8.00;;;;;;;8.05;86.53;101770.72;5114666;28;20019;-74
2021/01/20 09:31:13;;;;;;;13.85;7.25;;;;;;;8.20;88.09;101760.38;5099973;28;20043;-74
2021/01/20 09:33:59;;;;;;;13.77;7.32;;;;;;;8.59;84.41;101757.25;5114187;28;20394;-74
2021/01/20 09:36:45;;;;;;;23.30;8.82;;;;;;;7.80;88.09;101753.03;5114318;28;20340;-73
2021/01/20 09:39:31;;;;;;;13.23;7.60;;;;;;;7.32;89.80;101752.50;5114892;28;20030;-74
2021/01/20 09:42:16;;;;;;;13.45;8.20;;;;;;;6.96;91.10;101730.31;5113868;28;20020;-73
2021/01/20 09:45:04;;;;;;;19.65;9.73;;;;;;;7.66;91.67;101732.88;5113921;28;20364;-74
2021/01/20 09:47:50;;;;;;;16.90;9.02;;;;;;;7.44;89.64;101720.50;5113775;28;20028;-73
2021/01/20 09:50:37;;;;;;;20.65;11.00;;;;;;;7.56;88.06;101707.59;5115132;28;20504;-73
2021/01/20 09:53:23;;;;;;;21.02;10.27;;;;;;;8.38;83.42;101708.34;5114088;28;20108;-74
2021/01/20 09:56:08;;;;;;;17.67;9.93;;;;;;;8.05;79.16;101702.84;5112875;28;20028;-74
2021/01/20 09:58:54;;;;;;;17.17;10.20;;;;;;;8.37;80.38;101703.13;5113752;28;20024;-73
2021/01/20 10:01:40;;;;;;;19.77;9.43;;;;;;;8.41;78.05;101700.53;5113994;28;20070;-74
2021/01/20 10:04:25;;;;;;;18.52;9.77;;;;;;;8.70;77.56;101703.34;5113809;28;20089;-74
2021/01/20 10:07:15;;;;;;;13.88;8.60;;;;;;;8.13;79.84;101701.19;5112567;28;20037;-74
2021/01/20 10:10:02;;;;;;;15.15;7.90;;;;;;;7.64;79.72;101695.50;5113897;28;20027;-74
2021/01/20 10:12:49;;;;;;;12.82;7.20;;;;;;;7.94;80.38;101706.22;5113646;28;20515;-74
2021/01/20 10:15:38;;;;;;;10.85;6.82;;;;;;;8.68;79.10;101705.94;5113317;28;20353;-74
2021/01/20 10:18:24;;;;;;;11.20;6.32;;;;;;;7.85;79.24;101696.59;5099554;28;20020;-73
2021/01/20 10:21:10;;;;;;;14.05;6.65;;;;;;;7.36;81.42;101701.28;5120132;28;20030;-74
2021/01/20 10:23:55;;;;;;;12.70;6.70;;;;;;;7.98;80.04;101697.53;5118347;28;20034;-74
2021/01/20 10:26:41;;;;;;;10.80;6.53;;;;;;;7.47;82.13;101689.25;5117642;28;20031;-74
2021/01/20 10:29:27;;;;;;;8.93;6.15;;;;;;;8.00;81.99;101690.63;5117654;28;20184;-73
2021/01/20 10:32:13;;;;;;;10.85;6.13;;;;;;;8.66;79.06;101680.66;5117441;28;20337;-73
2021/01/20 10:35:19;;;;;;;11.27;6.53;;;;;;;8.80;76.36;101679.03;5117308;28;20360;-76
2021/01/20 10:38:04;;;;;;;11.95;7.22;;;;;;;8.18;79.14;101675.09;5117985;28;20035;-74
2021/01/20 10:41:08;;;;;;;16.50;8.75;;;;;;;8.16;78.02;101663.78;5117132;28;20019;-73
2021/01/20 10:43:54;;;;;;;11.77;7.95;;;;;;;8.72;77.36;101673.72;5117034;28;20083;-74
2021/01/20 10:46:40;;;;;;;21.48;9.15;;;;;;;7.85;80.67;101667.88;5116400;28;20474;-74
2021/01/20 10:49:26;;;;;;;12.15;8.25;;;;;;;8.15;81.37;101665.50;5101874;28;20081;-75
2021/01/20 10:52:12;;;;;;;11.95;7.63;;;;;;;8.25;80.55;101650.81;5102499;28;20055;-74
2021/01/20 10:54:57;;;;;;;12.30;7.35;;;;;;;8.17;79.26;101647.25;5103101;28;20039;-75
2021/01/20 10:57:46;;;;;;;11.70;6.63;;;;;;;8.10;79.44;101651.56;5102040;28;20030;-75
2021/01/20 11:00:49;;;;;;;13.40;6.68;;;;;;;7.73;83.06;101654.75;5117581;28;20027;-76
2021/01/20 11:03:35;;;;;;;10.32;6.35;;;;;;;8.14;82.01;101652.44;5111694;22;20369;-75
2021/01/20 11:06:20;;;;;;;11.43;6.28;;;;;;;8.32;81.17;101650.84;5096552;28;20028;-74
2021/01/20 11:09:06;;;;;;;11.00;6.35;;;;;;;8.69;80.03;101659.78;5095913;28;20062;-74
2021/01/20 11:11:52;;;;;;;13.68;7.50;;;;;;;8.38;78.69;101645.69;5095371;28;20028;-74
2021/01/20 11:14:40;;;;;;;12.32;8.30;;;;;;;9.02;78.56;101639.91;5096286;28;20024;-75
2021/01/20 11:17:26;;;;;;;17.48;8.40;;;;;;;9.08;78.06;101639.03;5095960;28;20020;-74
2021/01/20 11:20:12;;;;;;;17.73;9.50;;;;;;;8.62;81.29;101642.34;5095756;28;20530;-74
2021/01/20 11:22:59;;;;;;;16.48;10.05;;;;;;;8.85;82.17;101640.72;5095225;28;20032;-74
2021/01/20 11:25:51;;;;;;;18.27;8.70;;;;;;;8.29;80.12;101627.38;5081750;28;20441;-74
2021/01/20 11:28:37;;;;;;;19.55;9.65;;;;;;;8.83;81.05;101629.38;5095820;28;20028;-73
2021/01/20 11:31:23;;;;;;;16.33;9.50;;;;;;;7.61;84.84;101623.34;5080878;28;20041;-73
2021/01/20 11:34:09;;;;;;;19.92;9.75;;;;;;;7.60;85.28;101623.31;5094488;28;20028;-73
2021/01/20 11:36:54;;;;;;;18.23;8.88;;;;;;;7.96;86.07;101628.84;5095933;28;20058;-74
2021/01/20 11:39:41;;;;;;;16.05;8.80;;;;;;;8.48;84.22;101633.56;5094878;28;20109;-73
2021/01/20 11:42:27;;;;;;;12.73;7.30;;;;;;;8.58;82.76;101630.13;5095006;28;20473;-73
2021/01/20 11:45:12;;;;;;;10.27;6.55;;;;;;;8.73;80.67;101618.00;5096003;28;20067;-73
2021/01/20 11:47:58;;;;;;;11.52;6.70;;;;;;;8.60;82.57;101617.97;5095585;28;20036;-73
2021/01/20 11:50:45;;;;;;;9.68;5.93;;;;;;;8.89;81.69;101621.56;5095549;28;20024;-72
2021/01/20 11:53:31;;;;;;;16.67;6.65;;;;;;;8.71;80.83;101616.25;5095471;28;20119;-73
2021/01/20 11:56:17;;;;;;;13.32;6.25;;;;;;;8.72;81.37;101623.25;5094904;28;20028;-73
2021/01/20 11:59:03;;;;;;;9.68;6.05;;;;;;;9.27;79.35;101617.31;5093848;28;20341;-73
2021/01/20 12:01:49;;;;;;;8.02;5.85;;;;;;;9.09;79.60;101612.06;5093756;28;20527;-73
2021/01/20 12:04:34;;;;;;;12.93;6.50;;;;;;;8.79;81.38;101612.81;5080924;28;20406;-73
2021/01/20 12:07:20;;;;;;;9.88;6.05;;;;;;;9.13;82.01;101600.72;5080231;28;20020;-72
2021/01/20 12:10:08;;;;;;;9.10;6.60;;;;;;;9.21;79.93;101605.09;5080264;28;20024;-73
2021/01/20 12:12:53;;;;;;;9.85;6.57;;;;;;;9.68;78.40;101607.75;5080653;28;20036;-73
2021/01/20 12:15:39;;;;;;;10.85;7.18;;;;;;;8.43;85.36;101606.53;5094659;28;20073;-72
2021/01/20 12:18:25;;;;;;;12.20;6.85;;;;;;;8.95;82.05;101604.16;5094153;28;20028;-73
2021/01/20 12:21:10;;;;;;;13.63;6.53;;;;;;;8.83;82.37;101600.63;5095156;28;20031;-73
2021/01/20 12:23:56;;;;;;;12.05;6.75;;;;;;;8.66;83.60;101612.75;5093778;28;20028;-73
2021/01/20 12:26:42;;;;;;;10.52;6.10;;;;;;;8.82;83.46;101609.34;5094305;28;20062;-73
2021/01/20 12:29:28;;;;;;;10.70;6.40;;;;;;;9.00;84.87;101606.78;5094408;28;20024;-73
2021/01/20 12:32:13;;;;;;;10.95;6.50;;;;;;;8.70;82.48;101607.56;5094913;28;20020;-72
2021/01/20 12:34:59;;;;;;;10.20;6.78;;;;;;;8.91;82.45;101611.97;5093567;28;20165;-73
2021/01/20 12:37:45;;;;;;;10.15;6.20;;;;;;;8.82;83.33;101618.06;5093484;28;20031;-73
2021/01/20 12:40:31;;;;;;;8.85;6.10;;;;;;;9.12;83.18;101607.69;5093891;28;20098;-73
2021/01/20 12:43:17;;;;;;;11.25;6.30;;;;;;;9.07;85.11;101603.31;5079077;28;20135;-73
2021/01/20 12:46:02;;;;;;;8.63;5.88;;;;;;;9.27;84.25;101607.72;5079763;28;20431;-73